Time;durP1;ratioP1;P1;durP2;ratioP2;P2;SDS_P1;SDS_P2;PMS_P1;PMS_P2;Temp;Humidity;BMP_temperature;BMP_pressure;BME280_temperature;BME280_humidity;BME280_pressure;Samples;Min_cycle;Max_cycle;Signal;HPM_P1;HPM_P2
2022/03/19 00:02:19;;;;;;;9.68;6.90;;;;;;;;;;1908180;74;21524;-46
2022/03/19 00:04:48;;;;;;;7.90;5.78;;;;;;;;;;1908335;75;21151;-45
2022/03/19 00:07:17;;;;;;;8.78;5.50;;;;;;;;;;1908095;75;21100;-45
2022/03/19 00:09:46;;;;;;;8.18;5.72;;;;;;;;;;1908262;75;21042;-44
2022/03/19 00:12:15;;;;;;;7.72;5.50;;;;;;;;;;1908245;75;21006;-45
2022/03/19 00:14:45;;;;;;;7.05;5.87;;;;;;;;;;1911826;74;21095;-46
2022/03/19 00:17:14;;;;;;;7.85;6.75;;;;;;;;;;1943279;74;21045;-45
2022/03/19 00:19:42;;;;;;;13.88;9.20;;;;;;;;;;1943277;74;21331;-45
2022/03/19 00:22:11;;;;;;;6.60;3.85;;;;;;;;;;1943169;74;21102;-45
2022/03/19 00:24:40;;;;;;;8.95;6.33;;;;;;;;;;1943391;74;21040;-46
2022/03/19 00:27:09;;;;;;;11.40;7.97;;;;;;;;;;1943118;74;21044;-45
2022/03/19 00:29:37;;;;;;;10.88;8.08;;;;;;;;;;1943166;74;21040;-45
2022/03/19 00:32:07;;;;;;;6.47;4.75;;;;;;;;;;1943186;74;21113;-45
2022/03/19 00:34:35;;;;;;;11.75;6.87;;;;;;;;;;1943201;74;21040;-45
2022/03/19 00:37:04;;;;;;;9.08;6.15;;;;;;;;;;1943202;74;21037;-45
2022/03/19 00:39:33;;;;;;;6.03;4.75;;;;;;;;;;1943202;74;21040;-45
2022/03/19 00:42:02;;;;;;;10.30;7.17;;;;;;;;;;1943150;74;21045;-45
2022/03/19 00:44:31;;;;;;;5.53;4.97;;;;;;;;;;1943271;74;21052;-45
2022/03/19 00:47:00;;;;;;;7.97;5.95;;;;;;;;;;1943244;74;21084;-45
2022/03/19 00:49:29;;;;;;;6.70;5.50;;;;;;;;;;1943273;74;21102;-45
2022/03/19 00:51:57;;;;;;;13.40;8.60;;;;;;;;;;1943200;74;21040;-45
2022/03/19 00:54:27;;;;;;;5.90;4.10;;;;;;;;;;1943162;74;21110;-45
2022/03/19 00:56:55;;;;;;;6.08;4.92;;;;;;;;;;1943206;74;21052;-46
2022/03/19 00:59:24;;;;;;;7.83;4.87;;;;;;;;;;1943161;74;21048;-45
2022/03/19 01:01:53;;;;;;;5.50;5.00;;;;;;;;;;1943161;74;21032;-47
2022/03/19 01:04:22;;;;;;;6.92;5.78;;;;;;;;;;1943392;74;21057;-47
2022/03/19 01:06:52;;;;;;;6.03;5.00;;;;;;;;;;1943079;74;21041;-45
2022/03/19 01:09:20;;;;;;;7.10;6.10;;;;;;;;;;1943227;74;21033;-48
2022/03/19 01:11:50;;;;;;;8.23;5.50;;;;;;;;;;1943198;74;21024;-45
2022/03/19 01:14:19;;;;;;;7.10;5.55;;;;;;;;;;1943337;74;21076;-45
2022/03/19 01:16:48;;;;;;;7.53;6.12;;;;;;;;;;1943089;74;21056;-45
2022/03/19 01:19:52;;;;;;;9.70;6.80;;;;;;;;;;1943131;74;21079;-45
2022/03/19 01:21:47;;;;;;;7.95;6.22;;;;;;;;;;1938136;74;21550;-45
2022/03/19 01:24:16;;;;;;;7.67;5.22;;;;;;;;;;1943255;74;21040;-46
2022/03/19 01:26:45;;;;;;;7.97;5.58;;;;;;;;;;1943217;74;21041;-49
2022/03/19 01:29:14;;;;;;;4.65;3.90;;;;;;;;;;1943086;74;21099;-45
2022/03/19 01:31:42;;;;;;;6.83;5.30;;;;;;;;;;1943236;74;21044;-45
2022/03/19 01:34:11;;;;;;;7.00;5.80;;;;;;;;;;1943073;74;21044;-45
2022/03/19 01:36:40;;;;;;;5.70;4.72;;;;;;;;;;1943136;74;21169;-45
2022/03/19 01:39:09;;;;;;;8.68;6.08;;;;;;;;;;1943133;74;21053;-45
2022/03/19 01:41:44;;;;;;;10.20;6.83;;;;;;;;;;1943134;74;21045;-45
2022/03/19 01:44:20;;;;;;;8.58;5.75;;;;;;;;;;1943121;74;21040;-45
2022/03/19 01:46:58;;;;;;;7.05;5.50;;;;;;;;;;1943110;74;21029;-46
2022/03/19 01:49:27;;;;;;;7.15;6.10;;;;;;;;;;1943265;74;21032;-44
2022/03/19 01:51:56;;;;;;;8.05;5.28;;;;;;;;;;1943238;74;21025;-45
2022/03/19 01:54:26;;;;;;;6.62;2.90;;;;;;;;;;1943266;74;21041;-46
2022/03/19 01:56:56;;;;;;;7.55;5.42;;;;;;;;;;1941866;74;21122;-45
2022/03/19 01:59:26;;;;;;;10.90;5.80;;;;;;;;;;1943186;74;21030;-45
2022/03/19 02:01:56;;;;;;;5.30;4.25;;;;;;;;;;1909747;74;20993;-46
2022/03/19 02:04:25;;;;;;;7.15;4.80;;;;;;;;;;1943223;74;21031;-45
2022/03/19 02:06:55;;;;;;;7.47;5.83;;;;;;;;;;1943291;74;21102;-45
2022/03/19 02:09:24;;;;;;;10.28;6.42;;;;;;;;;;1943298;74;21455;-46
2022/03/19 02:11:52;;;;;;;8.23;6.15;;;;;;;;;;1943297;74;21098;-45
2022/03/19 02:14:21;;;;;;;7.65;5.33;;;;;;;;;;1943257;74;21099;-45
2022/03/19 02:16:50;;;;;;;5.20;4.60;;;;;;;;;;1919197;74;21104;-45
2022/03/19 02:19:19;;;;;;;5.85;4.53;;;;;;;;;;1898140;75;21077;-45
2022/03/19 02:21:49;;;;;;;10.75;8.40;;;;;;;;;;1898136;75;21100;-44
2022/03/19 02:27:04;;;;;;;6.05;4.75;;;;;;;;;;1898228;75;21097;-46
2022/03/19 02:29:33;;;;;;;6.30;4.83;;;;;;;;;;1898221;75;21038;-45
2022/03/19 02:32:03;;;;;;;5.45;3.02;;;;;;;;;;1898329;75;21030;-45
2022/03/19 02:34:33;;;;;;;8.98;6.65;;;;;;;;;;1898310;75;21034;-45
2022/03/19 02:37:02;;;;;;;7.05;6.05;;;;;;;;;;1898301;75;21082;-45
2022/03/19 02:39:34;;;;;;;6.20;5.05;;;;;;;;;;1898478;75;21082;-45
2022/03/19 02:42:04;;;;;;;10.63;6.80;;;;;;;;;;1898374;75;21122;-45
2022/03/19 02:44:33;;;;;;;10.85;4.90;;;;;;;;;;1898263;75;21022;-45
2022/03/19 02:47:03;;;;;;;5.95;5.15;;;;;;;;;;1898173;75;21050;-46
2022/03/19 02:49:32;;;;;;;9.95;6.83;;;;;;;;;;1898224;75;21453;-45
2022/03/19 02:52:01;;;;;;;5.25;4.55;;;;;;;;;;1898235;75;21019;-45
2022/03/19 02:54:30;;;;;;;4.53;3.90;;;;;;;;;;1898365;75;21112;-44
2022/03/19 02:56:59;;;;;;;6.03;5.12;;;;;;;;;;1898290;75;21049;-45
2022/03/19 02:59:29;;;;;;;7.70;5.87;;;;;;;;;;1898325;75;21097;-46
2022/03/19 03:01:59;;;;;;;6.03;5.00;;;;;;;;;;1898329;75;21461;-45
2022/03/19 03:04:28;;;;;;;5.35;4.80;;;;;;;;;;1898344;75;21035;-45
2022/03/19 03:06:58;;;;;;;8.18;6.55;;;;;;;;;;1898205;75;21038;-45
2022/03/19 03:09:28;;;;;;;7.40;5.67;;;;;;;;;;1898214;75;21054;-45
2022/03/19 03:11:58;;;;;;;4.97;4.37;;;;;;;;;;1898256;75;21092;-45
2022/03/19 03:14:27;;;;;;;7.03;5.80;;;;;;;;;;1898458;75;21054;-45
2022/03/19 03:16:58;;;;;;;5.85;5.28;;;;;;;;;;1898260;74;21066;-45
2022/03/19 03:19:27;;;;;;;4.55;4.03;;;;;;;;;;1898357;75;21023;-45
2022/03/19 03:21:55;;;;;;;9.30;5.62;;;;;;;;;;1898309;75;21043;-45
2022/03/19 03:24:25;;;;;;;6.72;4.95;;;;;;;;;;1898238;75;21019;-45
2022/03/19 03:26:54;;;;;;;6.12;4.22;;;;;;;;;;1898190;75;21026;-45
2022/03/19 03:29:23;;;;;;;4.12;3.70;;;;;;;;;;1898124;75;21027;-45
2022/03/19 03:31:52;;;;;;;7.60;4.78;;;;;;;;;;1898156;75;21104;-45
2022/03/19 03:34:21;;;;;;;6.37;4.45;;;;;;;;;;1898119;75;21123;-49
2022/03/19 03:36:50;;;;;;;6.28;4.92;;;;;;;;;;1898337;75;21096;-45
2022/03/19 03:39:20;;;;;;;5.20;4.58;;;;;;;;;;1898148;75;20999;-45
2022/03/19 03:41:48;;;;;;;7.47;5.50;;;;;;;;;;1898101;75;22418;-45
2022/03/19 03:44:17;;;;;;;7.90;5.87;;;;;;;;;;1898239;75;21046;-46
2022/03/19 03:46:46;;;;;;;8.28;5.80;;;;;;;;;;1898092;75;21062;-45
2022/03/19 03:49:15;;;;;;;3.90;3.50;;;;;;;;;;1898119;75;21046;-46
2022/03/19 03:51:44;;;;;;;8.83;4.45;;;;;;;;;;1898059;75;21039;-46
2022/03/19 03:54:13;;;;;;;5.92;5.17;;;;;;;;;;1898205;75;21043;-45
2022/03/19 03:56:42;;;;;;;10.08;7.35;;;;;;;;;;1898092;75;21046;-45
2022/03/19 03:59:10;;;;;;;8.68;7.05;;;;;;;;;;1898198;75;21171;-46
2022/03/19 04:01:39;;;;;;;6.78;4.85;;;;;;;;;;1898189;75;21030;-45
2022/03/19 04:04:08;;;;;;;7.30;5.35;;;;;;;;;;1898080;75;21113;-45
2022/03/19 04:06:36;;;;;;;4.92;3.75;;;;;;;;;;1898015;75;21042;-45
2022/03/19 04:09:05;;;;;;;9.23;5.85;;;;;;;;;;1898066;75;21112;-45
2022/03/19 04:11:34;;;;;;;6.37;5.12;;;;;;;;;;1898043;75;21050;-45
2022/03/19 04:14:03;;;;;;;8.10;5.35;;;;;;;;;;1898106;75;21108;-45
2022/03/19 04:16:32;;;;;;;7.30;5.08;;;;;;;;;;1898184;74;21022;-44
2022/03/19 04:19:01;;;;;;;3.83;3.08;;;;;;;;;;1943204;74;21033;-47
2022/03/19 04:21:30;;;;;;;6.58;5.90;;;;;;;;;;1943185;74;21080;-45
2022/03/19 04:23:59;;;;;;;4.58;3.02;;;;;;;;;;1943507;74;21028;-45
2022/03/19 04:26:28;;;;;;;5.40;4.58;;;;;;;;;;1943095;74;21102;-45
2022/03/19 04:28:56;;;;;;;4.83;4.33;;;;;;;;;;1943184;74;21110;-45
2022/03/19 04:31:25;;;;;;;7.33;5.17;;;;;;;;;;1943038;74;21040;-45
2022/03/19 04:33:54;;;;;;;4.03;3.58;;;;;;;;;;1943194;74;21032;-44
2022/03/19 04:36:38;;;;;;;9.20;6.42;;;;;;;;;;1943289;74;21005;-45
2022/03/19 04:39:08;;;;;;;6.40;4.90;;;;;;;;;;1943399;74;21028;-48
2022/03/19 04:41:37;;;;;;;5.87;4.28;;;;;;;;;;1943315;74;21029;-49
2022/03/19 04:44:07;;;;;;;2.30;2.05;;;;;;;;;;1943273;74;21036;-49
2022/03/19 04:46:36;;;;;;;4.67;3.72;;;;;;;;;;1943287;74;21064;-47
2022/03/19 04:49:05;;;;;;;9.58;7.20;;;;;;;;;;1943373;74;21025;-49
2022/03/19 04:51:36;;;;;;;9.08;6.53;;;;;;;;;;1943285;74;21048;-47
2022/03/19 04:54:05;;;;;;;5.20;4.70;;;;;;;;;;1943279;74;21040;-48
2022/03/19 04:56:33;;;;;;;9.13;6.50;;;;;;;;;;1943267;74;21102;-48
2022/03/19 04:59:03;;;;;;;8.98;6.78;;;;;;;;;;1943389;74;21024;-48
2022/03/19 05:01:32;;;;;;;7.65;4.50;;;;;;;;;;1943324;74;21032;-48
2022/03/19 05:04:01;;;;;;;6.55;4.78;;;;;;;;;;1943289;74;21056;-49
2022/03/19 05:06:30;;;;;;;5.85;4.75;;;;;;;;;;1943099;74;21028;-47
2022/03/19 05:11:46;;;;;;;4.67;3.60;;;;;;;;;;1943172;74;21193;-48
2022/03/19 05:14:14;;;;;;;3.83;3.30;;;;;;;;;;1943173;74;21107;-48
2022/03/19 05:16:43;;;;;;;6.92;5.10;;;;;;;;;;1943234;74;21037;-48
2022/03/19 05:19:12;;;;;;;3.90;3.50;;;;;;;;;;1901969;74;21030;-48
2022/03/19 05:21:41;;;;;;;6.10;5.40;;;;;;;;;;1898022;75;21143;-48
2022/03/19 05:24:10;;;;;;;8.40;4.92;;;;;;;;;;1898053;75;21030;-50
2022/03/19 05:26:39;;;;;;;10.13;7.22;;;;;;;;;;1898079;75;21065;-51
2022/03/19 05:29:11;;;;;;;5.72;3.95;;;;;;;;;;1898080;75;21104;-47
2022/03/19 05:31:37;;;;;;;8.60;6.72;;;;;;;;;;1897940;74;21536;-49
2022/03/19 05:36:53;;;;;;;10.48;6.50;;;;;;;;;;1897989;75;21093;-49
2022/03/19 05:39:22;;;;;;;8.45;5.20;;;;;;;;;;1898020;75;21112;-47
2022/03/19 05:41:51;;;;;;;5.12;4.58;;;;;;;;;;1897991;75;21077;-48
2022/03/19 05:44:20;;;;;;;11.03;7.67;;;;;;;;;;1898052;75;21046;-49
2022/03/19 05:46:48;;;;;;;7.60;5.83;;;;;;;;;;1897989;75;21046;-48
2022/03/19 05:49:17;;;;;;;9.15;6.97;;;;;;;;;;1898015;75;21109;-48
2022/03/19 05:51:47;;;;;;;7.08;4.53;;;;;;;;;;1898118;75;21042;-48
2022/03/19 05:54:16;;;;;;;6.10;5.12;;;;;;;;;;1898154;75;21042;-48
2022/03/19 05:56:44;;;;;;;8.08;5.30;;;;;;;;;;1897968;75;21112;-47
2022/03/19 05:59:13;;;;;;;8.78;5.50;;;;;;;;;;1898102;75;21035;-47
2022/03/19 06:01:42;;;;;;;12.43;5.28;;;;;;;;;;1898129;75;21108;-47
2022/03/19 06:04:11;;;;;;;7.95;4.53;;;;;;;;;;1898150;75;21414;-47
2022/03/19 06:06:39;;;;;;;6.37;5.40;;;;;;;;;;1897951;75;21019;-48
2022/03/19 06:09:08;;;;;;;8.50;5.70;;;;;;;;;;1898011;75;21047;-48
2022/03/19 06:11:38;;;;;;;9.28;6.65;;;;;;;;;;1897997;75;21043;-48
2022/03/19 06:14:07;;;;;;;9.85;6.70;;;;;;;;;;1898033;75;21016;-48
2022/03/19 06:16:36;;;;;;;6.47;4.60;;;;;;;;;;1897976;75;21038;-47
2022/03/19 06:19:05;;;;;;;5.97;4.12;;;;;;;;;;1923701;74;21114;-48
2022/03/19 06:21:34;;;;;;;4.05;3.25;;;;;;;;;;1937259;74;21090;-48
2022/03/19 06:24:04;;;;;;;7.03;5.85;;;;;;;;;;1937220;74;21120;-48
2022/03/19 06:26:32;;;;;;;5.87;4.78;;;;;;;;;;1937152;74;21090;-47
2022/03/19 06:29:01;;;;;;;6.80;4.22;;;;;;;;;;1937415;74;21100;-49
2022/03/19 06:31:30;;;;;;;8.75;5.50;;;;;;;;;;1937306;74;21041;-47
2022/03/19 06:33:59;;;;;;;6.05;5.37;;;;;;;;;;1937412;74;21114;-48
2022/03/19 06:39:14;;;;;;;5.03;4.47;;;;;;;;;;1937176;74;21041;-47
2022/03/19 06:41:43;;;;;;;6.62;4.55;;;;;;;;;;1937173;74;21041;-47
2022/03/19 06:44:12;;;;;;;4.92;3.83;;;;;;;;;;1937409;74;21057;-48
2022/03/19 06:46:40;;;;;;;6.28;5.22;;;;;;;;;;1937254;74;21085;-48
2022/03/19 06:49:09;;;;;;;7.42;4.78;;;;;;;;;;1937429;74;21029;-47
2022/03/19 06:51:38;;;;;;;5.63;4.67;;;;;;;;;;1937467;74;21141;-45
2022/03/19 06:54:07;;;;;;;5.40;4.65;;;;;;;;;;1937519;74;21041;-45
2022/03/19 06:56:35;;;;;;;6.42;3.77;;;;;;;;;;1937315;74;21119;-45
2022/03/19 06:59:04;;;;;;;10.38;7.28;;;;;;;;;;1937331;74;21037;-47
2022/03/19 07:01:36;;;;;;;6.80;6.10;;;;;;;;;;1937406;74;21053;-47
2022/03/19 07:04:04;;;;;;;7.05;5.45;;;;;;;;;;1937299;74;21057;-48
2022/03/19 07:06:33;;;;;;;9.65;4.33;;;;;;;;;;1937226;74;21057;-46
2022/03/19 07:09:01;;;;;;;3.83;3.52;;;;;;;;;;1937264;74;21084;-46
2022/03/19 07:11:31;;;;;;;4.65;3.20;;;;;;;;;;1937227;74;21045;-47
2022/03/19 07:14:01;;;;;;;6.10;4.85;;;;;;;;;;1937336;74;21009;-46
2022/03/19 07:16:29;;;;;;;6.72;5.28;;;;;;;;;;1937252;74;21025;-46
2022/03/19 07:18:59;;;;;;;7.37;5.42;;;;;;;;;;1937237;74;21124;-46
2022/03/19 07:21:27;;;;;;;7.92;5.65;;;;;;;;;;1937273;74;21029;-46
2022/03/19 07:23:56;;;;;;;6.70;4.92;;;;;;;;;;1937268;74;21025;-46
2022/03/19 07:26:26;;;;;;;9.75;6.05;;;;;;;;;;1937275;74;21143;-46
2022/03/19 07:28:55;;;;;;;7.65;5.20;;;;;;;;;;1937239;74;21029;-46
2022/03/19 07:31:24;;;;;;;13.28;8.45;;;;;;;;;;1937351;74;21040;-47
2022/03/19 07:33:52;;;;;;;41.13;27.00;;;;;;;;;;1937273;74;21100;-46
2022/03/19 07:36:21;;;;;;;14.65;10.10;;;;;;;;;;1937352;74;21088;-47
2022/03/19 07:38:50;;;;;;;9.70;5.83;;;;;;;;;;1937282;74;21013;-47
2022/03/19 07:44:05;;;;;;;9.00;5.53;;;;;;;;;;1937278;74;21037;-46
2022/03/19 07:46:35;;;;;;;13.22;7.42;;;;;;;;;;1937399;74;21091;-46
2022/03/19 07:49:04;;;;;;;8.38;6.28;;;;;;;;;;1937204;74;21094;-46
2022/03/19 07:51:33;;;;;;;17.85;7.80;;;;;;;;;;1937232;74;21052;-47
2022/03/19 07:54:02;;;;;;;7.58;6.28;;;;;;;;;;1937401;74;21045;-45
2022/03/19 07:56:31;;;;;;;9.28;6.60;;;;;;;;;;1937409;74;21405;-46
2022/03/19 07:59:00;;;;;;;7.00;5.47;;;;;;;;;;1937271;74;21041;-46
2022/03/19 08:01:28;;;;;;;6.15;4.00;;;;;;;;;;1937214;74;21111;-46
2022/03/19 08:03:57;;;;;;;8.85;6.62;;;;;;;;;;1937262;74;21037;-46
2022/03/19 08:06:26;;;;;;;12.58;7.90;;;;;;;;;;1937236;74;21053;-46
2022/03/19 08:08:55;;;;;;;10.08;5.50;;;;;;;;;;1937274;74;21119;-46
2022/03/19 08:11:24;;;;;;;11.00;7.35;;;;;;;;;;1937157;74;21041;-47
2022/03/19 08:13:53;;;;;;;9.03;6.05;;;;;;;;;;1937263;74;21041;-46
2022/03/19 08:16:22;;;;;;;4.85;3.87;;;;;;;;;;1937176;74;21155;-46
2022/03/19 08:18:50;;;;;;;8.83;7.05;;;;;;;;;;1932407;74;21495;-47
2022/03/19 08:21:19;;;;;;;8.30;5.50;;;;;;;;;;1898136;75;21030;-46
2022/03/19 08:23:48;;;;;;;4.17;3.33;;;;;;;;;;1898071;75;21042;-47
2022/03/19 08:26:17;;;;;;;5.75;4.50;;;;;;;;;;1898020;75;21042;-47
2022/03/19 08:28:46;;;;;;;6.08;4.22;;;;;;;;;;1897986;75;21092;-47
2022/03/19 08:31:15;;;;;;;5.25;4.67;;;;;;;;;;1898153;75;21031;-47
2022/03/19 08:33:44;;;;;;;9.55;6.45;;;;;;;;;;1897959;75;21045;-46
2022/03/19 08:36:12;;;;;;;6.40;5.00;;;;;;;;;;1897978;75;21140;-46
2022/03/19 08:41:28;;;;;;;4.00;3.15;;;;;;;;;;1898092;75;21046;-46
2022/03/19 08:43:58;;;;;;;4.40;3.77;;;;;;;;;;1898148;75;21131;-47
2022/03/19 08:46:27;;;;;;;5.17;4.03;;;;;;;;;;1898001;75;21092;-46
2022/03/19 08:48:55;;;;;;;5.62;4.28;;;;;;;;;;1898134;75;21039;-45
2022/03/19 08:51:42;;;;;;;4.47;3.15;;;;;;;;;;1898036;75;21039;-46
2022/03/19 08:54:14;;;;;;;4.83;4.22;;;;;;;;;;1898025;75;21070;-46
2022/03/19 08:56:43;;;;;;;42.83;37.85;;;;;;;;;;1898078;75;21096;-46
2022/03/19 08:59:11;;;;;;;18.02;12.65;;;;;;;;;;1898171;75;21156;-46
2022/03/19 09:01:41;;;;;;;7.67;6.37;;;;;;;;;;1898147;75;21113;-46
2022/03/19 09:04:10;;;;;;;7.40;5.53;;;;;;;;;;1898184;75;21096;-46
2022/03/19 09:06:39;;;;;;;6.65;5.17;;;;;;;;;;1898073;75;20999;-46
2022/03/19 09:09:08;;;;;;;5.15;4.33;;;;;;;;;;1898041;75;21054;-46
2022/03/19 09:11:37;;;;;;;5.53;4.10;;;;;;;;;;1898115;75;21019;-46
2022/03/19 09:14:06;;;;;;;6.85;5.20;;;;;;;;;;1898203;75;21015;-47
2022/03/19 09:16:35;;;;;;;5.97;4.55;;;;;;;;;;1898028;75;21030;-46
2022/03/19 09:19:04;;;;;;;4.85;4.20;;;;;;;;;;1898119;74;21007;-47
2022/03/19 09:21:33;;;;;;;4.97;4.42;;;;;;;;;;1897995;75;21113;-46
2022/03/19 09:24:02;;;;;;;13.75;5.80;;;;;;;;;;1897980;75;21086;-46
2022/03/19 09:26:31;;;;;;;5.97;4.25;;;;;;;;;;1897941;75;21058;-46
2022/03/19 09:29:00;;;;;;;4.10;3.70;;;;;;;;;;1897992;75;21085;-46
2022/03/19 09:31:30;;;;;;;5.35;4.80;;;;;;;;;;1898049;75;21027;-49
2022/03/19 09:33:58;;;;;;;5.47;4.97;;;;;;;;;;1898142;75;21030;-47
2022/03/19 09:36:27;;;;;;;5.22;4.28;;;;;;;;;;1898119;75;21096;-46
2022/03/19 09:38:56;;;;;;;8.95;5.22;;;;;;;;;;1898015;75;21139;-46
2022/03/19 09:41:25;;;;;;;4.55;3.45;;;;;;;;;;1898141;75;21042;-46
2022/03/19 09:43:55;;;;;;;12.00;5.80;;;;;;;;;;1898067;75;21039;-47
2022/03/19 09:46:24;;;;;;;6.92;4.58;;;;;;;;;;1898090;75;21002;-46
2022/03/19 09:48:53;;;;;;;7.90;4.53;;;;;;;;;;1898115;75;21034;-46
2022/03/19 09:51:22;;;;;;;3.77;2.98;;;;;;;;;;1897967;75;21136;-47
2022/03/19 09:53:51;;;;;;;4.37;3.20;;;;;;;;;;1898352;75;21100;-45
2022/03/19 09:56:20;;;;;;;4.30;3.55;;;;;;;;;;1898224;75;21112;-46
2022/03/19 09:58:49;;;;;;;7.15;5.35;;;;;;;;;;1898089;75;21092;-46
2022/03/19 10:01:18;;;;;;;9.15;5.33;;;;;;;;;;1898162;75;21116;-46
2022/03/19 10:03:50;;;;;;;5.75;3.83;;;;;;;;;;1898155;75;21129;-46
2022/03/19 10:09:05;;;;;;;5.80;3.72;;;;;;;;;;1898158;75;21042;-48
2022/03/19 10:11:35;;;;;;;7.12;5.58;;;;;;;;;;1897957;75;21023;-46
2022/03/19 10:14:07;;;;;;;7.50;4.90;;;;;;;;;;1898114;75;21124;-48
2022/03/19 10:16:36;;;;;;;7.03;3.42;;;;;;;;;;1898018;75;21159;-47
2022/03/19 10:19:07;;;;;;;6.50;4.53;;;;;;;;;;1898087;75;21027;-46
2022/03/19 10:21:37;;;;;;;11.88;5.85;;;;;;;;;;1898179;74;21132;-46
2022/03/19 10:24:08;;;;;;;6.83;4.67;;;;;;;;;;1898200;75;21026;-46
2022/03/19 10:26:40;;;;;;;6.22;4.72;;;;;;;;;;1898167;75;21461;-47
2022/03/19 10:29:14;;;;;;;5.15;4.42;;;;;;;;;;1898252;75;21023;-46
2022/03/19 10:31:40;;;;;;;8.73;5.15;;;;;;;;;;1897149;75;21014;-47
2022/03/19 10:34:09;;;;;;;5.97;4.50;;;;;;;;;;1898132;75;20999;-50
2022/03/19 10:36:42;;;;;;;6.58;5.12;;;;;;;;;;1898181;75;21034;-46
2022/03/19 10:39:14;;;;;;;8.38;6.33;;;;;;;;;;1898115;75;21100;-46
2022/03/19 10:41:43;;;;;;;5.85;4.00;;;;;;;;;;1898187;75;21003;-46
2022/03/19 10:44:20;;;;;;;8.88;5.25;;;;;;;;;;1898230;75;21073;-46
2022/03/19 10:46:50;;;;;;;6.55;5.42;;;;;;;;;;1897259;75;21054;-47
2022/03/19 10:49:19;;;;;;;4.97;3.87;;;;;;;;;;1898220;75;21155;-47
2022/03/19 10:51:49;;;;;;;6.28;3.80;;;;;;;;;;1898220;75;21035;-46
2022/03/19 10:54:18;;;;;;;8.60;5.25;;;;;;;;;;1898248;75;21093;-47
2022/03/19 10:56:48;;;;;;;5.72;4.15;;;;;;;;;;1898125;75;21085;-47
2022/03/19 10:59:16;;;;;;;9.88;5.08;;;;;;;;;;1898213;75;21524;-47
2022/03/19 11:01:49;;;;;;;5.55;4.55;;;;;;;;;;1898155;75;21043;-46
2022/03/19 11:04:17;;;;;;;4.80;3.95;;;;;;;;;;1898105;75;21014;-51
2022/03/19 11:06:46;;;;;;;7.65;4.60;;;;;;;;;;1898027;75;21014;-46
2022/03/19 11:09:15;;;;;;;5.85;4.90;;;;;;;;;;1898157;75;21039;-46
2022/03/19 11:11:45;;;;;;;7.25;3.90;;;;;;;;;;1898116;75;21043;-46
2022/03/19 11:14:23;;;;;;;7.25;4.30;;;;;;;;;;1898222;75;21050;-46
2022/03/19 11:17:23;;;;;;;6.00;3.95;;;;;;;;;;1896576;75;21055;-47
2022/03/19 11:19:16;;;;;;;5.15;4.37;;;;;;;;;;1894426;75;21050;-47
2022/03/19 11:21:46;;;;;;;9.58;4.70;;;;;;;;;;1930298;74;21065;-47
2022/03/19 11:24:22;;;;;;;7.47;5.05;;;;;;;;;;1943387;74;21028;-46
2022/03/19 11:26:48;;;;;;;5.00;4.25;;;;;;;;;;1938662;74;21104;-45
2022/03/19 11:29:16;;;;;;;4.08;3.42;;;;;;;;;;1943172;74;21517;-48
2022/03/19 11:31:47;;;;;;;4.95;3.50;;;;;;;;;;1943023;74;21041;-47
2022/03/19 11:34:18;;;;;;;5.78;3.15;;;;;;;;;;1941294;74;21041;-47
2022/03/19 11:36:56;;;;;;;5.22;4.15;;;;;;;;;;1943159;74;21025;-47
2022/03/19 11:39:25;;;;;;;5.17;3.65;;;;;;;;;;1943166;74;21020;-47
2022/03/19 11:41:54;;;;;;;5.30;4.08;;;;;;;;;;1943181;74;21028;-46
2022/03/19 11:44:24;;;;;;;8.18;5.28;;;;;;;;;;1943270;74;21069;-46
2022/03/19 11:46:56;;;;;;;9.03;6.72;;;;;;;;;;1943210;74;21028;-48
2022/03/19 11:49:43;;;;;;;8.65;6.95;;;;;;;;;;1943186;74;21068;-47
2022/03/19 11:52:13;;;;;;;9.50;5.37;;;;;;;;;;1943241;74;21120;-46
2022/03/19 11:55:00;;;;;;;6.40;5.60;;;;;;;;;;1943114;74;21063;-48
2022/03/19 11:57:29;;;;;;;8.83;5.22;;;;;;;;;;1943158;74;21114;-47
2022/03/19 11:59:59;;;;;;;5.62;4.95;;;;;;;;;;1943303;74;21095;-46
2022/03/19 12:02:32;;;;;;;10.72;6.75;;;;;;;;;;1941823;74;21090;-46
2022/03/19 12:04:58;;;;;;;6.72;3.58;;;;;;;;;;1942722;74;21439;-46
2022/03/19 12:07:43;;;;;;;7.17;5.78;;;;;;;;;;1943092;74;21029;-46
2022/03/19 12:10:21;;;;;;;7.67;6.20;;;;;;;;;;1943234;74;21028;-47
2022/03/19 12:12:47;;;;;;;5.00;4.50;;;;;;;;;;1942187;74;21017;-46
2022/03/19 12:15:35;;;;;;;11.35;6.12;;;;;;;;;;1943135;74;21539;-46
2022/03/19 12:18:21;;;;;;;9.85;6.25;;;;;;;;;;1943455;74;21200;-46
2022/03/19 12:20:51;;;;;;;6.65;5.95;;;;;;;;;;1936843;74;21259;-46
2022/03/19 12:23:21;;;;;;;6.50;5.30;;;;;;;;;;1898344;75;21120;-47
2022/03/19 12:25:54;;;;;;;6.90;5.00;;;;;;;;;;1898229;75;21023;-46
2022/03/19 12:28:23;;;;;;;9.48;6.45;;;;;;;;;;1898191;75;21147;-47
2022/03/19 12:30:52;;;;;;;7.17;5.72;;;;;;;;;;1898180;75;21113;-46
2022/03/19 12:33:22;;;;;;;7.35;5.72;;;;;;;;;;1898203;75;21042;-47
2022/03/19 12:35:51;;;;;;;9.18;7.10;;;;;;;;;;1897243;75;20991;-46
2022/03/19 12:38:32;;;;;;;5.28;4.45;;;;;;;;;;1898171;75;21038;-46
2022/03/19 12:43:43;;;;;;;7.45;5.58;;;;;;;;;;1897961;75;21089;-47
2022/03/19 12:46:13;;;;;;;9.50;6.72;;;;;;;;;;1898311;75;21046;-47
2022/03/19 12:48:42;;;;;;;9.20;5.47;;;;;;;;;;1898137;75;21027;-48
2022/03/19 12:51:11;;;;;;;8.60;5.87;;;;;;;;;;1897972;75;21035;-47
2022/03/19 12:53:44;;;;;;;5.15;3.95;;;;;;;;;;1898180;75;21120;-45
2022/03/19 12:56:14;;;;;;;6.90;6.20;;;;;;;;;;1897350;75;21034;-46
2022/03/19 12:58:44;;;;;;;7.53;4.72;;;;;;;;;;1898037;75;21073;-46
2022/03/19 13:01:13;;;;;;;7.20;5.12;;;;;;;;;;1898090;75;21042;-48
2022/03/19 13:03:42;;;;;;;9.83;6.53;;;;;;;;;;1898166;75;21034;-47
2022/03/19 13:06:11;;;;;;;7.17;5.92;;;;;;;;;;1898099;75;21011;-46
2022/03/19 13:08:47;;;;;;;9.70;5.55;;;;;;;;;;1898223;75;21108;-46
2022/03/19 13:11:16;;;;;;;6.72;4.67;;;;;;;;;;1897292;75;21034;-46
2022/03/19 13:13:46;;;;;;;4.85;4.28;;;;;;;;;;1898149;75;21038;-46
2022/03/19 13:16:28;;;;;;;5.03;4.12;;;;;;;;;;1898198;75;21469;-47
2022/03/19 13:19:04;;;;;;;3.87;3.58;;;;;;;;;;1898191;75;21030;-46
2022/03/19 13:21:36;;;;;;;5.30;3.50;;;;;;;;;;1907191;74;21029;-46
2022/03/19 13:24:05;;;;;;;6.17;4.33;;;;;;;;;;1943120;74;21049;-46
2022/03/19 13:26:35;;;;;;;6.90;3.95;;;;;;;;;;1943113;74;21110;-47
2022/03/19 13:29:11;;;;;;;9.00;4.83;;;;;;;;;;1943096;74;21025;-46
2022/03/19 13:31:46;;;;;;;10.32;7.30;;;;;;;;;;1943183;74;21091;-46
2022/03/19 13:34:19;;;;;;;5.92;5.33;;;;;;;;;;1943152;74;21118;-46
2022/03/19 13:36:52;;;;;;;4.22;3.60;;;;;;;;;;1943091;74;21028;-46
2022/03/19 13:39:22;;;;;;;6.17;5.50;;;;;;;;;;1943373;74;21032;-47
2022/03/19 13:41:51;;;;;;;8.83;6.95;;;;;;;;;;1943200;74;21028;-46
2022/03/19 13:44:29;;;;;;;6.40;5.17;;;;;;;;;;1943331;74;21029;-47
2022/03/19 13:47:11;;;;;;;6.67;5.35;;;;;;;;;;1943109;74;21025;-46
2022/03/19 13:49:53;;;;;;;6.67;6.08;;;;;;;;;;1943145;74;21024;-46
2022/03/19 13:52:33;;;;;;;9.15;7.12;;;;;;;;;;1942970;74;21475;-47
2022/03/19 13:55:07;;;;;;;7.65;5.42;;;;;;;;;;1943096;74;21111;-46
2022/03/19 13:57:37;;;;;;;10.78;7.33;;;;;;;;;;1943212;74;21025;-46
2022/03/19 14:00:06;;;;;;;4.03;3.40;;;;;;;;;;1943181;74;21045;-46
2022/03/19 14:02:37;;;;;;;5.55;4.58;;;;;;;;;;1942333;74;21573;-46
2022/03/19 14:05:07;;;;;;;6.08;5.45;;;;;;;;;;1943203;74;21048;-47
2022/03/19 14:07:36;;;;;;;5.70;4.25;;;;;;;;;;1943417;74;21095;-46
2022/03/19 14:10:08;;;;;;;6.50;5.72;;;;;;;;;;1943347;74;21005;-47
2022/03/19 14:12:38;;;;;;;8.75;5.25;;;;;;;;;;1943250;74;20997;-47
2022/03/19 14:15:07;;;;;;;7.83;4.60;;;;;;;;;;1943339;74;21103;-46
2022/03/19 14:17:46;;;;;;;11.08;7.28;;;;;;;;;;1943253;74;21032;-46
2022/03/19 14:20:15;;;;;;;8.48;6.20;;;;;;;;;;1943301;74;21458;-46
2022/03/19 14:22:44;;;;;;;6.50;5.85;;;;;;;;;;1921093;74;21067;-46
2022/03/19 14:25:13;;;;;;;5.28;4.28;;;;;;;;;;1898260;75;21027;-46
2022/03/19 14:27:42;;;;;;;6.47;4.87;;;;;;;;;;1898096;75;21112;-46
2022/03/19 14:30:12;;;;;;;5.90;4.40;;;;;;;;;;1898137;75;21035;-47
2022/03/19 14:32:41;;;;;;;4.62;4.12;;;;;;;;;;1898237;75;21445;-47
2022/03/19 14:35:28;;;;;;;8.50;5.40;;;;;;;;;;1898090;75;21027;-47
2022/03/19 14:38:05;;;;;;;5.07;4.00;;;;;;;;;;1897103;75;21066;-46
2022/03/19 14:40:34;;;;;;;7.45;5.20;;;;;;;;;;1898063;75;21085;-47
2022/03/19 14:43:04;;;;;;;7.08;5.60;;;;;;;;;;1898152;75;21062;-47
2022/03/19 14:45:33;;;;;;;5.20;3.90;;;;;;;;;;1898130;75;21082;-46
2022/03/19 14:48:02;;;;;;;5.00;3.67;;;;;;;;;;1898090;75;21018;-47
2022/03/19 14:50:31;;;;;;;7.25;5.10;;;;;;;;;;1898141;75;21104;-47
2022/03/19 14:53:00;;;;;;;5.60;4.30;;;;;;;;;;1898136;75;21034;-50
2022/03/19 14:55:28;;;;;;;9.00;5.30;;;;;;;;;;1898249;75;21108;-51
2022/03/19 14:57:57;;;;;;;4.70;3.95;;;;;;;;;;1898186;75;21038;-49
2022/03/19 15:00:28;;;;;;;7.20;4.90;;;;;;;;;;1898163;75;21560;-46
2022/03/19 15:02:56;;;;;;;5.08;3.87;;;;;;;;;;1898198;75;21038;-47
2022/03/19 15:05:25;;;;;;;6.87;5.50;;;;;;;;;;1898171;75;21046;-47
2022/03/19 15:07:54;;;;;;;7.12;4.40;;;;;;;;;;1897960;75;21100;-48
2022/03/19 15:10:24;;;;;;;5.00;4.50;;;;;;;;;;1898172;75;21058;-49
2022/03/19 15:12:53;;;;;;;4.97;4.47;;;;;;;;;;1897996;75;21100;-46
2022/03/19 15:15:22;;;;;;;8.78;5.70;;;;;;;;;;1898052;75;21026;-47
2022/03/19 15:17:51;;;;;;;7.40;6.58;;;;;;;;;;1898110;75;21473;-47
2022/03/19 15:20:20;;;;;;;5.12;4.08;;;;;;;;;;1898161;75;21105;-47